Аэропорт: Псков. Псков

ICAO: ULOO

METAR:
2021-10-23 02:30:00
ULOO 230230Z 20004MPS CAVOK 02/01 Q0993 R19/090060 NOSIG RMK QFE741
METAR:
2021-10-22 22:53:00
TAF ULOO 222253Z 2300/2309 22005MPS 6000 BKN016 TEMPO 2300/2306 26005G10MPS -SHRA BKN020CB BECMG 2306/2307 26005MPS TEMPO 2307/2309 -SHRASN BKN020CB